Time;durP1;ratioP1;P1;durP2;ratioP2;P2;SDS_P1;SDS_P2;PMS_P1;PMS_P2;Temp;Humidity;BMP_temperature;BMP_pressure;BME280_temperature;BME280_humidity;BME280_pressure;Samples;Min_cycle;Max_cycle;Signal;HPM_P1;HPM_P2
2022/04/25 10:55:01;;;;;;;14.70;7.78;;;;;;;25.94;30.32;101174.75;4823421;29;19944;-93
2022/04/25 10:58:23;;;;;;;11.07;7.80;;;;;;;26.12;28.80;101174.28;4810628;29;20154;-91
2022/04/25 11:20:53;;;;;;;;;;;;;;;;;;;;;
2022/04/25 11:31:53;;;;;;;8.27;7.20;;;;;;;25.69;28.36;101165.19;4706938;30;20048;-94
2022/04/25 11:35:16;;;;;;;17.02;7.10;;;;;;;25.88;28.23;101114.09;4729891;30;20047;-94
2022/04/25 11:42:13;;;;;;;;;;;;;;;;;;;;;
2022/04/25 15:17:42;;;;;;;10.38;4.80;;;;;;;29.31;20.84;101126.94;4346499;23;20053;-82
2022/04/25 15:20:09;;;;;;;11.60;4.70;;;;;;;30.21;19.88;101125.31;4846209;29;20046;-83
2022/04/25 15:22:34;;;;;;;5.75;4.35;;;;;;;31.02;19.96;101105.78;4855701;29;20131;-82
2022/04/25 15:25:03;;;;;;;6.68;4.57;;;;;;;31.80;18.41;101128.16;4833200;29;20041;-82
2022/04/25 15:27:29;;;;;;;9.13;4.07;;;;;;;30.59;19.76;101124.50;4833212;29;20087;-82
2022/04/25 15:29:54;;;;;;;7.15;3.83;;;;;;;29.97;20.28;101119.81;4858160;29;20531;-82
2022/04/25 15:32:20;;;;;;;5.53;4.10;;;;;;;29.48;20.00;101115.41;4859347;29;20107;-82
2022/04/25 15:34:47;;;;;;;18.75;5.63;;;;;;;30.19;19.84;101119.25;4848317;29;20113;-81
2022/04/25 15:37:14;;;;;;;7.38;3.83;;;;;;;28.10;20.89;101119.25;4849235;29;20080;-82
2022/04/25 15:39:41;;;;;;;11.77;3.70;;;;;;;24.77;25.97;101123.25;4856466;29;20069;-81
2022/04/25 15:42:07;;;;;;;8.00;3.78;;;;;;;22.79;28.50;101115.72;4862444;29;20033;-81
2022/04/25 15:44:32;;;;;;;4.93;3.47;;;;;;;21.80;30.45;101121.47;4839001;29;20045;-81
2022/04/25 15:46:59;;;;;;;6.05;3.42;;;;;;;21.40;30.52;101105.81;4840082;29;20061;-80
2022/04/25 15:49:27;;;;;;;7.28;3.78;;;;;;;23.16;28.32;101117.97;4849417;29;21883;-81
2022/04/25 15:51:53;;;;;;;6.15;3.50;;;;;;;24.92;26.65;101108.78;4841715;29;20033;-81
2022/04/25 15:59:48;;;;;;;8.55;4.13;;;;;;;21.85;29.96;101129.78;4835101;29;20033;-82
2022/04/25 16:02:14;;;;;;;6.30;4.47;;;;;;;23.86;28.19;101121.97;4822017;29;20399;-82
2022/04/25 16:04:39;;;;;;;5.65;3.75;;;;;;;22.81;29.28;101124.53;4858507;29;20033;-81
2022/04/25 16:07:05;;;;;;;5.47;3.97;;;;;;;23.52;28.19;101123.16;4856451;29;20468;-81
2022/04/25 16:09:31;;;;;;;4.47;3.50;;;;;;;23.18;28.30;101124.06;4852057;29;20030;-81
2022/04/25 16:11:56;;;;;;;7.80;4.28;;;;;;;24.20;27.84;101127.31;4856474;29;20448;-81
2022/04/25 16:14:24;;;;;;;9.52;3.97;;;;;;;24.77;27.64;101126.00;4834006;29;20042;-77
2022/04/25 16:16:51;;;;;;;7.60;4.30;;;;;;;26.51;24.50;101121.41;4858568;29;20187;-78
2022/04/25 16:19:16;;;;;;;6.38;3.83;;;;;;;24.93;26.07;101130.53;4841404;29;20108;-78
2022/04/25 16:21:44;;;;;;;7.18;4.15;;;;;;;22.92;29.32;101116.47;4829085;29;20125;-77
2022/04/25 16:24:13;;;;;;;5.53;4.00;;;;;;;21.51;31.12;101104.16;4840832;29;20033;-77
2022/04/25 16:26:41;;;;;;;6.43;3.17;;;;;;;21.17;32.19;101124.94;4854469;29;20071;-77
2022/04/25 16:29:09;;;;;;;6.07;3.67;;;;;;;20.76;34.00;101124.78;4849896;29;20072;-78
2022/04/25 16:31:35;;;;;;;8.43;4.22;;;;;;;22.45;32.29;101130.44;4856452;29;20440;-77
2022/04/25 16:34:01;;;;;;;7.45;4.55;;;;;;;24.45;28.72;101128.72;4843438;29;20042;-77
2022/04/25 16:36:29;;;;;;;7.38;3.20;;;;;;;25.16;26.63;101132.09;4827263;29;20089;-77
2022/04/25 16:38:57;;;;;;;6.78;3.38;;;;;;;23.86;29.49;101105.50;4817593;29;20757;-77
2022/04/25 16:41:23;;;;;;;4.78;3.70;;;;;;;24.47;27.59;101116.38;4859890;29;20032;-77
2022/04/25 16:43:54;;;;;;;7.25;4.18;;;;;;;24.26;27.80;101120.78;4864094;29;20102;-78
2022/04/25 16:46:19;;;;;;;6.68;3.83;;;;;;;22.83;30.58;101129.75;4828977;29;20041;-78
2022/04/25 16:48:45;;;;;;;6.18;3.67;;;;;;;22.29;32.15;101135.63;4832244;29;20056;-77
2022/04/25 16:51:11;;;;;;;7.80;4.07;;;;;;;21.85;32.34;101140.72;4840994;29;20029;-78
2022/04/25 16:53:36;;;;;;;7.30;4.30;;;;;;;20.75;33.07;101141.44;4838303;29;20600;-79
2022/04/25 16:56:10;;;;;;;5.20;4.15;;;;;;;19.28;37.23;101126.81;4823336;29;20038;-78
2022/04/25 16:58:36;;;;;;;7.13;4.07;;;;;;;18.75;38.35;101142.78;4837722;29;20144;-78
2022/04/25 17:01:04;;;;;;;9.15;3.53;;;;;;;18.37;38.59;101141.72;4852637;29;20112;-80
2022/04/25 17:03:32;;;;;;;5.35;3.85;;;;;;;17.71;39.78;101141.97;4863082;29;20151;-77
2022/04/25 17:05:59;;;;;;;7.13;3.33;;;;;;;17.28;41.63;101154.19;4822699;29;20130;-78
2022/04/25 17:08:33;;;;;;;7.70;4.40;;;;;;;16.77;42.51;101148.50;4858105;29;20041;-78
2022/04/25 17:11:00;;;;;;;9.45;3.03;;;;;;;16.34;44.00;101141.53;4872185;29;20033;-78
2022/04/25 17:13:26;;;;;;;5.13;2.85;;;;;;;16.05;44.12;101150.81;4862575;29;20770;-79
2022/04/25 17:15:52;;;;;;;6.32;3.80;;;;;;;15.78;45.58;101160.72;4855409;29;20040;-79
2022/04/25 17:18:18;;;;;;;6.63;3.67;;;;;;;15.72;45.13;101158.81;4849950;29;20041;-78
2022/04/25 17:20:43;;;;;;;6.47;3.80;;;;;;;15.59;46.23;101154.09;4865103;29;20037;-78
2022/04/25 17:23:15;;;;;;;5.80;3.90;;;;;;;15.56;46.49;101154.50;4863937;29;20018;-79
2022/04/25 17:25:40;;;;;;;6.75;3.65;;;;;;;15.59;47.47;101159.53;4870713;29;20044;-77
2022/04/25 17:28:07;;;;;;;6.78;4.53;;;;;;;15.54;46.85;101148.44;4834025;29;20054;-79
2022/04/25 17:30:34;;;;;;;11.52;3.92;;;;;;;15.64;46.25;101167.91;4822950;29;20029;-78
2022/04/25 17:35:47;;;;;;;9.02;4.85;;;;;;;15.32;47.24;101159.34;4850833;29;20049;-77
